sensor_id;sensor_type;location;lat;lon;timestamp;pressure;altitude;pressure_sealevel;temperature;humidity
74542;BME280;63015;45.378;20.360;2022-09-06T00:01:40;101231.38;;;23.25;56.43
74542;BME280;63015;45.378;20.360;2022-09-06T00:04:07;101231.31;;;23.27;56.30
74542;BME280;63015;45.378;20.360;2022-09-06T00:06:33;101234.06;;;23.25;56.21
74542;BME280;63015;45.378;20.360;2022-09-06T00:08:59;101225.16;;;23.26;56.22
74542;BME280;63015;45.378;20.360;2022-09-06T00:11:25;101226.06;;;23.25;56.16
74542;BME280;63015;45.378;20.360;2022-09-06T00:13:50;101219.84;;;23.26;56.30
74542;BME280;63015;45.378;20.360;2022-09-06T00:16:18;101222.50;;;23.26;56.17
74542;BME280;63015;45.378;20.360;2022-09-06T00:18:44;101226.94;;;23.26;56.33
74542;BME280;63015;45.378;20.360;2022-09-06T00:21:14;101227.81;;;23.26;56.07
74542;BME280;63015;45.378;20.360;2022-09-06T00:23:40;101217.19;;;23.26;55.96
74542;BME280;63015;45.378;20.360;2022-09-06T00:26:06;101226.94;;;23.26;56.29
74542;BME280;63015;45.378;20.360;2022-09-06T00:28:32;101218.09;;;23.25;56.25
74542;BME280;63015;45.378;20.360;2022-09-06T00:30:58;101218.09;;;23.25;56.01
74542;BME280;63015;45.378;20.360;2022-09-06T00:33:23;101213.63;;;23.26;56.18
74542;BME280;63015;45.378;20.360;2022-09-06T00:35:49;101219.84;;;23.26;56.16
74542;BME280;63015;45.378;20.360;2022-09-06T00:38:15;101228.66;;;23.27;56.02
74542;BME280;63015;45.378;20.360;2022-09-06T00:40:41;101221.59;;;23.26;56.08
74542;BME280;63015;45.378;20.360;2022-09-06T00:43:07;101221.59;;;23.26;56.35
74542;BME280;63015;45.378;20.360;2022-09-06T00:45:32;101224.25;;;23.26;56.15
74542;BME280;63015;45.378;20.360;2022-09-06T00:47:58;101230.41;;;23.28;56.29
74542;BME280;63015;45.378;20.360;2022-09-06T00:50:25;101223.34;;;23.27;56.17
74542;BME280;63015;45.378;20.360;2022-09-06T00:52:52;101221.59;;;23.26;56.05
74542;BME280;63015;45.378;20.360;2022-09-06T00:55:19;101225.19;;;23.25;56.28
74542;BME280;63015;45.378;20.360;2022-09-06T00:57:45;101229.59;;;23.26;56.15
74542;BME280;63015;45.378;20.360;2022-09-06T01:00:15;101224.19;;;23.27;56.32
74542;BME280;63015;45.378;20.360;2022-09-06T01:02:41;101231.38;;;23.25;56.09
74542;BME280;63015;45.378;20.360;2022-09-06T01:05:08;101234.06;;;23.25;56.20
74542;BME280;63015;45.378;20.360;2022-09-06T01:07:50;101237.69;;;23.23;56.06
74542;BME280;63015;45.378;20.360;2022-09-06T01:20:22;101234.06;;;23.25;56.16
74542;BME280;63015;45.378;20.360;2022-09-06T01:30:26;101241.34;;;23.20;56.19
74542;BME280;63015;45.378;20.360;2022-09-06T01:38:02;101244.00;;;23.20;55.87
74542;BME280;63015;45.378;20.360;2022-09-06T01:40:29;101235.13;;;23.21;56.16
74542;BME280;63015;45.378;20.360;2022-09-06T01:42:54;101238.69;;;23.20;55.94
74542;BME280;63015;45.378;20.360;2022-09-06T01:48:45;101238.63;;;23.22;55.98
74542;BME280;63015;45.378;20.360;2022-09-06T02:01:27;101231.56;;;23.21;55.94
74542;BME280;63015;45.378;20.360;2022-09-06T02:06:49;101234.22;;;23.21;55.95
74542;BME280;63015;45.378;20.360;2022-09-06T02:09:20;101227.06;;;23.23;55.63
74542;BME280;63015;45.378;20.360;2022-09-06T02:11:48;101223.53;;;23.22;55.61
74542;BME280;63015;45.378;20.360;2022-09-06T02:14:16;101221.81;;;23.21;55.94
74542;BME280;63015;45.378;20.360;2022-09-06T02:16:44;101217.50;;;23.19;55.87
74542;BME280;63015;45.378;20.360;2022-09-06T02:19:47;101222.59;;;23.23;55.46
74542;BME280;63015;45.378;20.360;2022-09-06T02:22:05;101223.66;;;23.19;55.80
74542;BME280;63015;45.378;20.360;2022-09-06T02:24:32;101222.81;;;23.19;55.87
74542;BME280;63015;45.378;20.360;2022-09-06T02:27:01;101221.94;;;23.18;55.64
74542;BME280;63015;45.378;20.360;2022-09-06T02:29:27;101219.28;;;23.18;55.72
74542;BME280;63015;45.378;20.360;2022-09-06T02:32:36;101213.03;;;23.19;55.56
74542;BME280;63015;45.378;20.360;2022-09-06T02:34:42;101224.66;;;23.17;55.73
74542;BME280;63015;45.378;20.360;2022-09-06T02:37:11;101214.88;;;23.17;55.71
74542;BME280;63015;45.378;20.360;2022-09-06T02:39:37;101227.38;;;23.15;55.40
74542;BME280;63015;45.378;20.360;2022-09-06T02:42:03;101227.38;;;23.15;55.69
74542;BME280;63015;45.378;20.360;2022-09-06T02:44:30;101222.00;;;23.17;55.54
74542;BME280;63015;45.378;20.360;2022-09-06T02:46:57;101221.16;;;23.16;55.43
74542;BME280;63015;45.378;20.360;2022-09-06T02:49:23;101228.22;;;23.15;55.73
74542;BME280;63015;45.378;20.360;2022-09-06T02:51:49;101222.00;;;23.17;55.51
74542;BME280;63015;45.378;20.360;2022-09-06T02:54:15;101233.47;;;23.17;55.26
74542;BME280;63015;45.378;20.360;2022-09-06T02:56:41;101230.88;;;23.15;55.36
74542;BME280;63015;45.378;20.360;2022-09-06T02:59:06;101224.75;;;23.13;55.57
74542;BME280;63015;45.378;20.360;2022-09-06T03:01:32;101226.50;;;23.14;55.58
74542;BME280;63015;45.378;20.360;2022-09-06T03:03:58;101218.63;;;23.11;55.39
74542;BME280;63015;45.378;20.360;2022-09-06T03:06:24;101211.50;;;23.12;55.49
74542;BME280;63015;45.378;20.360;2022-09-06T03:08:50;101214.16;;;23.12;55.23
74542;BME280;63015;45.378;20.360;2022-09-06T03:11:16;101221.22;;;23.13;55.33
74542;BME280;63015;45.378;20.360;2022-09-06T03:13:42;101220.19;;;23.17;55.42
74542;BME280;63015;45.378;20.360;2022-09-06T03:16:07;101212.28;;;23.15;55.27
74542;BME280;63015;45.378;20.360;2022-09-06T03:18:33;101214.09;;;23.15;55.47
74542;BME280;63015;45.378;20.360;2022-09-06T03:20:59;101212.38;;;23.12;55.55
74542;BME280;63015;45.378;20.360;2022-09-06T03:23:26;101214.09;;;23.15;55.40
74542;BME280;63015;45.378;20.360;2022-09-06T03:25:52;101216.88;;;23.10;55.35
74542;BME280;63015;45.378;20.360;2022-09-06T03:28:18;101212.38;;;23.12;55.13
74542;BME280;63015;45.378;20.360;2022-09-06T03:30:44;101214.16;;;23.12;55.31
74542;BME280;63015;45.378;20.360;2022-09-06T03:33:10;101206.19;;;23.12;55.31
74542;BME280;63015;45.378;20.360;2022-09-06T03:35:37;101207.06;;;23.12;55.04
74542;BME280;63015;45.378;20.360;2022-09-06T03:38:03;101209.66;;;23.14;55.10
74542;BME280;63015;45.378;20.360;2022-09-06T03:40:28;101209.72;;;23.12;55.18
74542;BME280;63015;45.378;20.360;2022-09-06T03:42:54;101207.88;;;23.14;55.18
74542;BME280;63015;45.378;20.360;2022-09-06T03:45:20;101204.47;;;23.11;55.06
74542;BME280;63015;45.378;20.360;2022-09-06T03:47:46;101204.53;;;23.09;55.26
74542;BME280;63015;45.378;20.360;2022-09-06T03:50:11;101201.00;;;23.09;55.09
74542;BME280;63015;45.378;20.360;2022-09-06T03:52:37;101209.00;;;23.09;55.38
74542;BME280;63015;45.378;20.360;2022-09-06T03:55:03;101212.56;;;23.08;55.19
74542;BME280;63015;45.378;20.360;2022-09-06T03:57:29;101213.44;;;23.08;55.19
74542;BME280;63015;45.378;20.360;2022-09-06T03:59:55;101211.72;;;23.07;55.08
74542;BME280;63015;45.378;20.360;2022-09-06T04:02:21;101216.16;;;23.07;55.12
74542;BME280;63015;45.378;20.360;2022-09-06T04:04:46;101210.78;;;23.08;55.20
74542;BME280;63015;45.378;20.360;2022-09-06T04:07:12;101221.47;;;23.07;55.28
74542;BME280;63015;45.378;20.360;2022-09-06T04:09:38;101217.03;;;23.07;55.22
74542;BME280;63015;45.378;20.360;2022-09-06T04:12:04;101218.88;;;23.05;55.20
74542;BME280;63015;45.378;20.360;2022-09-06T04:14:29;101221.59;;;23.04;55.30
74542;BME280;63015;45.378;20.360;2022-09-06T04:16:55;101225.19;;;23.03;55.37
74542;BME280;63015;45.378;20.360;2022-09-06T04:19:21;101220.75;;;23.03;55.17
74542;BME280;63015;45.378;20.360;2022-09-06T04:21:48;101213.75;;;23.01;55.40
74542;BME280;63015;45.378;20.360;2022-09-06T04:24:14;101219.19;;;22.97;55.22
74542;BME280;63015;45.378;20.360;2022-09-06T04:26:39;101218.19;;;23.00;55.37
74542;BME280;63015;45.378;20.360;2022-09-06T04:29:05;101229.72;;;23.01;55.28
74542;BME280;63015;45.378;20.360;2022-09-06T04:31:31;101229.75;;;22.99;55.38
74542;BME280;63015;45.378;20.360;2022-09-06T04:33:57;101226.16;;;23.00;55.29
74542;BME280;63015;45.378;20.360;2022-09-06T04:36:23;101227.91;;;23.01;55.18
74542;BME280;63015;45.378;20.360;2022-09-06T04:38:49;101220.84;;;23.00;55.33
74542;BME280;63015;45.378;20.360;2022-09-06T04:41:15;101222.66;;;22.99;55.32
74542;BME280;63015;45.378;20.360;2022-09-06T04:43:41;101223.50;;;23.00;55.22
74542;BME280;63015;45.378;20.360;2022-09-06T04:46:16;101219.13;;;22.99;55.28
74542;BME280;63015;45.378;20.360;2022-09-06T04:48:43;101215.59;;;22.98;55.34
74542;BME280;63015;45.378;20.360;2022-09-06T04:51:09;101218.19;;;23.00;55.39
74542;BME280;63015;45.378;20.360;2022-09-06T04:53:35;101224.44;;;22.99;55.53
74542;BME280;63015;45.378;20.360;2022-09-06T04:56:00;101219.13;;;22.99;55.26
74542;BME280;63015;45.378;20.360;2022-09-06T04:58:26;101220.06;;;22.98;55.26
74542;BME280;63015;45.378;20.360;2022-09-06T05:00:52;101220.00;;;22.99;55.27
74542;BME280;63015;45.378;20.360;2022-09-06T05:03:18;101233.22;;;23.01;55.49
74542;BME280;63015;45.378;20.360;2022-09-06T05:05:44;101227.91;;;23.01;55.29
74542;BME280;63015;45.378;20.360;2022-09-06T05:08:10;101235.06;;;22.99;55.46
74542;BME280;63015;45.378;20.360;2022-09-06T05:10:35;101224.56;;;22.96;55.64
74542;BME280;63015;45.378;20.360;2022-09-06T05:13:01;101238.53;;;23.01;55.61
74542;BME280;63015;45.378;20.360;2022-09-06T05:15:27;101226.91;;;23.04;55.61
74542;BME280;63015;45.378;20.360;2022-09-06T05:17:59;101226.84;;;23.05;55.55
74542;BME280;63015;45.378;20.360;2022-09-06T05:20:25;101227.75;;;23.04;55.46
74542;BME280;63015;45.378;20.360;2022-09-06T05:22:51;101231.38;;;23.03;55.74
74542;BME280;63015;45.378;20.360;2022-09-06T05:25:18;101228.72;;;23.03;55.75
74542;BME280;63015;45.378;20.360;2022-09-06T05:27:44;101237.41;;;23.07;55.79
74542;BME280;63015;45.378;20.360;2022-09-06T05:30:10;101245.38;;;23.07;55.57
74542;BME280;63015;45.378;20.360;2022-09-06T05:32:36;101244.41;;;23.09;55.71
74542;BME280;63015;45.378;20.360;2022-09-06T05:35:02;101248.69;;;23.13;55.57
74542;BME280;63015;45.378;20.360;2022-09-06T05:37:28;101249.44;;;23.17;55.48
74542;BME280;63015;45.378;20.360;2022-09-06T05:39:53;101243.19;;;23.18;55.79
74542;BME280;63015;45.378;20.360;2022-09-06T05:42:19;101250.41;;;23.14;55.73
74542;BME280;63015;45.378;20.360;2022-09-06T05:44:45;101248.59;;;23.17;55.77
74542;BME280;63015;45.378;20.360;2022-09-06T05:47:11;101249.53;;;23.14;55.81
74542;BME280;63015;45.378;20.360;2022-09-06T05:49:36;101247.75;;;23.14;55.74
74542;BME280;63015;45.378;20.360;2022-09-06T05:52:02;101244.13;;;23.17;55.80
74542;BME280;63015;45.378;20.360;2022-09-06T05:54:28;101239.53;;;23.21;56.07
74542;BME280;63015;45.378;20.360;2022-09-06T05:56:54;101240.53;;;23.18;56.18
74542;BME280;63015;45.378;20.360;2022-09-06T05:59:20;101231.63;;;23.19;55.72
74542;BME280;63015;45.378;20.360;2022-09-06T06:01:46;101237.81;;;23.20;56.06
74542;BME280;63015;45.378;20.360;2022-09-06T06:04:12;101241.34;;;23.20;55.98
74542;BME280;63015;45.378;20.360;2022-09-06T06:06:38;101238.63;;;23.22;56.03
74542;BME280;63015;45.378;20.360;2022-09-06T06:09:04;101240.28;;;23.24;55.89
74542;BME280;63015;45.378;20.360;2022-09-06T06:11:30;101242.03;;;23.25;55.98
74542;BME280;63015;45.378;20.360;2022-09-06T06:13:56;101229.72;;;23.23;56.17
74542;BME280;63015;45.378;20.360;2022-09-06T06:16:23;101234.06;;;23.25;56.15
74542;BME280;63015;45.378;20.360;2022-09-06T06:18:50;101236.78;;;23.24;56.21
74542;BME280;63015;45.378;20.360;2022-09-06T06:23:42;101238.97;;;23.35;55.85
74542;BME280;63015;45.378;20.360;2022-09-06T06:26:09;101237.25;;;23.34;56.09
74542;BME280;63015;45.378;20.360;2022-09-06T06:28:35;101238.97;;;23.35;56.12
74542;BME280;63015;45.378;20.360;2022-09-06T06:31:02;101238.81;;;23.39;56.09
74542;BME280;63015;45.378;20.360;2022-09-06T06:33:28;101231.84;;;23.35;56.57
74542;BME280;63015;45.378;20.360;2022-09-06T06:38:23;101236.16;;;23.39;56.49
74542;BME280;63015;45.378;20.360;2022-09-06T06:40:48;101236.06;;;23.41;56.50
74542;BME280;63015;45.378;20.360;2022-09-06T06:43:14;101232.59;;;23.39;56.89
74542;BME280;63015;45.378;20.360;2022-09-06T06:45:40;101234.34;;;23.40;56.80
74542;BME280;63015;45.378;20.360;2022-09-06T06:48:06;101238.81;;;23.39;57.11
74542;BME280;63015;45.378;20.360;2022-09-06T06:50:32;101234.25;;;23.41;56.95
74542;BME280;63015;45.378;20.360;2022-09-06T06:52:57;101241.25;;;23.44;56.89
74542;BME280;63015;45.378;20.360;2022-09-06T06:55:23;101238.59;;;23.44;56.97
74542;BME280;63015;45.378;20.360;2022-09-06T06:57:49;101245.56;;;23.46;56.73
74542;BME280;63015;45.378;20.360;2022-09-06T07:00:15;101245.56;;;23.46;56.90
74542;BME280;63015;45.378;20.360;2022-09-06T07:02:40;101243.66;;;23.50;56.50
74542;BME280;63015;45.378;20.360;2022-09-06T07:05:06;101243.72;;;23.48;56.83
74542;BME280;63015;45.378;20.360;2022-09-06T07:07:32;101241.13;;;23.47;56.98
74542;BME280;63015;45.378;20.360;2022-09-06T07:09:58;101244.59;;;23.49;56.88
74542;BME280;63015;45.378;20.360;2022-09-06T07:12:24;101250.72;;;23.51;56.93
74542;BME280;63015;45.378;20.360;2022-09-06T07:14:49;101245.41;;;23.51;57.02
74542;BME280;63015;45.378;20.360;2022-09-06T07:17:15;101240.94;;;23.52;57.10
74542;BME280;63015;45.378;20.360;2022-09-06T07:19:41;101247.16;;;23.51;57.15
74542;BME280;63015;45.378;20.360;2022-09-06T07:22:06;101253.31;;;23.53;57.23
74542;BME280;63015;45.378;20.360;2022-09-06T07:24:32;101255.81;;;23.56;57.00
74542;BME280;63015;45.378;20.360;2022-09-06T07:26:58;101250.47;;;23.57;57.26
74542;BME280;63015;45.378;20.360;2022-09-06T07:29:24;101248.78;;;23.55;57.35
74542;BME280;63015;45.378;20.360;2022-09-06T07:31:50;101247.84;;;23.56;57.14
74542;BME280;63015;45.378;20.360;2022-09-06T07:34:20;101261.81;;;23.61;57.02
74542;BME280;63015;45.378;20.360;2022-09-06T07:36:46;101255.50;;;23.63;57.03
74542;BME280;63015;45.378;20.360;2022-09-06T07:39:12;101255.56;;;23.62;57.09
74542;BME280;63015;45.378;20.360;2022-09-06T07:41:38;101249.25;;;23.64;57.07
74542;BME280;63015;45.378;20.360;2022-09-06T07:44:04;101247.41;;;23.67;56.94
74542;BME280;63015;45.378;20.360;2022-09-06T07:46:30;101252.78;;;23.65;56.92
74542;BME280;63015;45.378;20.360;2022-09-06T07:48:55;101258.78;;;23.70;57.15
74542;BME280;63015;45.378;20.360;2022-09-06T07:51:21;101261.38;;;23.72;56.72
74542;BME280;63015;45.378;20.360;2022-09-06T07:53:48;101254.16;;;23.74;56.94
74542;BME280;63015;45.378;20.360;2022-09-06T07:56:18;101251.47;;;23.75;56.52
74542;BME280;63015;45.378;20.360;2022-09-06T07:58:44;101251.41;;;23.77;56.67
74542;BME280;63015;45.378;20.360;2022-09-06T08:01:29;101253.06;;;23.79;56.19
74542;BME280;63015;45.378;20.360;2022-09-06T08:03:59;101246.66;;;23.84;56.36
74542;BME280;63015;45.378;20.360;2022-09-06T08:06:26;101249.03;;;23.91;56.18
74542;BME280;63015;45.378;20.360;2022-09-06T08:08:52;101239.19;;;23.93;56.21
74542;BME280;63015;45.378;20.360;2022-09-06T08:11:18;101239.19;;;23.93;56.13
74542;BME280;63015;45.378;20.360;2022-09-06T08:13:43;101241.63;;;23.98;56.27
74542;BME280;63015;45.378;20.360;2022-09-06T08:16:10;101235.38;;;23.99;55.96
74542;BME280;63015;45.378;20.360;2022-09-06T08:18:36;101236.03;;;24.04;56.19
74542;BME280;63015;45.378;20.360;2022-09-06T08:21:09;101233.31;;;24.06;56.02
74542;BME280;63015;45.378;20.360;2022-09-06T08:23:36;101227.97;;;24.06;55.95
74542;BME280;63015;45.378;20.360;2022-09-06T08:26:02;101226.84;;;24.11;56.06
74542;BME280;63015;45.378;20.360;2022-09-06T08:28:28;101224.84;;;24.17;55.49
74542;BME280;63015;45.378;20.360;2022-09-06T08:30:54;101228.38;;;24.17;55.50
74542;BME280;63015;45.378;20.360;2022-09-06T08:33:20;101232.84;;;24.17;55.76
74542;BME280;63015;45.378;20.360;2022-09-06T08:35:58;101227.94;;;24.26;55.26
74542;BME280;63015;45.378;20.360;2022-09-06T08:38:25;101233.28;;;24.45;55.01
74542;BME280;63015;45.378;20.360;2022-09-06T08:40:51;101230.13;;;24.56;54.45
74542;BME280;63015;45.378;20.360;2022-09-06T08:43:18;101229.25;;;24.56;54.41
74542;BME280;63015;45.378;20.360;2022-09-06T08:45:46;101230.50;;;24.68;53.96
74542;BME280;63015;45.378;20.360;2022-09-06T08:48:13;101239.09;;;24.74;53.43
74542;BME280;63015;45.378;20.360;2022-09-06T08:50:40;101231.94;;;24.94;52.55
74542;BME280;63015;45.378;20.360;2022-09-06T08:53:13;101226.94;;;25.05;52.56
74542;BME280;63015;45.378;20.360;2022-09-06T08:55:51;101227.00;;;25.04;51.26
74542;BME280;63015;45.378;20.360;2022-09-06T09:00:47;101221.75;;;25.02;51.35
74542;BME280;63015;45.378;20.360;2022-09-06T09:03:15;101226.19;;;25.21;49.71
74542;BME280;63015;45.378;20.360;2022-09-06T09:05:46;101222.38;;;25.07;50.58
74542;BME280;63015;45.378;20.360;2022-09-06T09:08:16;101229.13;;;24.97;50.58
74542;BME280;63015;45.378;20.360;2022-09-06T09:10:47;101224.34;;;25.04;50.62
74542;BME280;63015;45.378;20.360;2022-09-06T09:13:18;101225.13;;;25.06;50.34
74542;BME280;63015;45.378;20.360;2022-09-06T09:15:45;101218.78;;;25.08;49.95
74542;BME280;63015;45.378;20.360;2022-09-06T09:18:10;101217.69;;;25.12;49.90
74542;BME280;63015;45.378;20.360;2022-09-06T09:20:37;101222.44;;;25.25;49.67
74542;BME280;63015;45.378;20.360;2022-09-06T09:23:03;101211.75;;;25.25;48.99
74542;BME280;63015;45.378;20.360;2022-09-06T09:25:29;101215.38;;;25.24;48.30
74542;BME280;63015;45.378;20.360;2022-09-06T09:27:56;101222.66;;;25.20;48.89
74542;BME280;63015;45.378;20.360;2022-09-06T09:30:23;101219.34;;;25.15;48.69
74542;BME280;63015;45.378;20.360;2022-09-06T09:32:49;101211.69;;;25.26;48.28
74542;BME280;63015;45.378;20.360;2022-09-06T09:35:20;101206.31;;;25.46;46.25
74542;BME280;63015;45.378;20.360;2022-09-06T09:37:46;101201.81;;;25.46;46.03
74542;BME280;63015;45.378;20.360;2022-09-06T09:40:35;101195.47;;;25.49;47.37
74542;BME280;63015;45.378;20.360;2022-09-06T09:43:09;101198.22;;;25.47;46.49
74542;BME280;63015;45.378;20.360;2022-09-06T09:45:35;101197.44;;;25.45;46.89
74542;BME280;63015;45.378;20.360;2022-09-06T09:48:17;101190.63;;;25.57;46.37
74542;BME280;63015;45.378;20.360;2022-09-06T09:50:44;101188.31;;;25.67;45.93
74542;BME280;63015;45.378;20.360;2022-09-06T09:53:15;101187.47;;;25.66;46.41
74542;BME280;63015;45.378;20.360;2022-09-06T09:55:41;101185.50;;;25.70;46.19
74542;BME280;63015;45.378;20.360;2022-09-06T09:58:17;101185.72;;;25.65;46.52
74542;BME280;63015;45.378;20.360;2022-09-06T10:00:44;101190.91;;;25.68;46.39
74542;BME280;63015;45.378;20.360;2022-09-06T10:03:16;101183.38;;;25.76;46.26
74542;BME280;63015;45.378;20.360;2022-09-06T10:05:53;101180.91;;;25.89;46.34
74542;BME280;63015;45.378;20.360;2022-09-06T10:08:19;101181.44;;;25.96;46.14
74542;BME280;63015;45.378;20.360;2022-09-06T10:10:48;101179.00;;;25.91;46.16
74542;BME280;63015;45.378;20.360;2022-09-06T10:13:23;101173.66;;;26.09;45.72
74542;BME280;63015;45.378;20.360;2022-09-06T10:15:56;101180.63;;;26.12;45.33
74542;BME280;63015;45.378;20.360;2022-09-06T10:18:31;101174.25;;;26.14;45.06
74542;BME280;63015;45.378;20.360;2022-09-06T10:28:40;101168.88;;;25.98;45.99
74542;BME280;63015;45.378;20.360;2022-09-06T10:36:10;101170.69;;;26.47;44.75
74542;BME280;63015;45.378;20.360;2022-09-06T10:41:20;101166.19;;;26.48;43.94
74542;BME280;63015;45.378;20.360;2022-09-06T10:46:52;101168.34;;;26.41;42.38
74542;BME280;63015;45.378;20.360;2022-09-06T10:49:19;101168.88;;;26.32;43.12
74542;BME280;63015;45.378;20.360;2022-09-06T10:51:47;101171.72;;;26.45;43.63
74542;BME280;63015;45.378;20.360;2022-09-06T10:54:19;101160.91;;;26.30;43.35
74542;BME280;63015;45.378;20.360;2022-09-06T10:59:43;101163.34;;;26.19;44.26
74542;BME280;63015;45.378;20.360;2022-09-06T11:04:52;101163.66;;;26.13;43.96
74542;BME280;63015;45.378;20.360;2022-09-06T11:10:20;101153.59;;;26.34;43.78
74542;BME280;63015;45.378;20.360;2022-09-06T11:15:19;101151.81;;;26.34;43.83
74542;BME280;63015;45.378;20.360;2022-09-06T11:20:19;101147.03;;;26.23;42.98
74542;BME280;63015;45.378;20.360;2022-09-06T11:25:44;101140.84;;;26.23;42.80
74542;BME280;63015;45.378;20.360;2022-09-06T11:28:36;101125.59;;;26.41;42.38
74542;BME280;63015;45.378;20.360;2022-09-06T11:30:59;101133.06;;;26.18;42.93
74542;BME280;63015;45.378;20.360;2022-09-06T11:33:30;101124.72;;;26.24;42.31
74542;BME280;63015;45.378;20.360;2022-09-06T11:36:44;101116.81;;;26.23;42.20
74542;BME280;63015;45.378;20.360;2022-09-06T11:38:52;101114.47;;;26.17;42.31
74542;BME280;63015;45.378;20.360;2022-09-06T11:41:19;101110.97;;;26.16;42.10
74542;BME280;63015;45.378;20.360;2022-09-06T11:43:47;101109.38;;;26.12;42.02
74542;BME280;63015;45.378;20.360;2022-09-06T11:49:29;101104.94;;;25.95;43.07
74542;BME280;63015;45.378;20.360;2022-09-06T11:51:55;101099.44;;;26.62;41.48
74542;BME280;63015;45.378;20.360;2022-09-06T11:56:58;101093.94;;;26.65;41.28
74542;BME280;63015;45.378;20.360;2022-09-06T12:04:20;101083.53;;;26.45;41.12
74542;BME280;63015;45.378;20.360;2022-09-06T12:07:05;101081.31;;;26.37;42.23
74542;BME280;63015;45.378;20.360;2022-09-06T12:09:33;101078.09;;;26.46;42.01
74542;BME280;63015;45.378;20.360;2022-09-06T12:11:59;101074.38;;;26.33;41.83
74542;BME280;63015;45.378;20.360;2022-09-06T12:24:50;101064.75;;;26.46;42.51
74542;BME280;63015;45.378;20.360;2022-09-06T12:27:19;101062.13;;;26.61;41.20
74542;BME280;63015;45.378;20.360;2022-09-06T12:29:49;101060.53;;;26.42;40.54
74542;BME280;63015;45.378;20.360;2022-09-06T12:32:18;101054.88;;;26.63;40.39
74542;BME280;63015;45.378;20.360;2022-09-06T12:34:44;101054.88;;;26.79;40.56
74542;BME280;63015;45.378;20.360;2022-09-06T12:37:12;101047.31;;;26.55;41.34
74542;BME280;63015;45.378;20.360;2022-09-06T12:39:38;101049.56;;;26.47;41.83
74542;BME280;63015;45.378;20.360;2022-09-06T12:42:04;101043.09;;;26.51;42.02
74542;BME280;63015;45.378;20.360;2022-09-06T12:46:59;101036.00;;;26.66;41.30
74542;BME280;63015;45.378;20.360;2022-09-06T12:49:26;101033.31;;;26.66;41.07
74542;BME280;63015;45.378;20.360;2022-09-06T12:52:03;101035.50;;;26.59;40.81
74542;BME280;63015;45.378;20.360;2022-09-06T12:54:30;101026.09;;;26.52;42.56
74542;BME280;63015;45.378;20.360;2022-09-06T12:57:10;101031.72;;;26.47;42.01
74542;BME280;63015;45.378;20.360;2022-09-06T12:59:36;101035.28;;;26.32;41.54
74542;BME280;63015;45.378;20.360;2022-09-06T13:02:07;101028.22;;;26.15;42.42
74542;BME280;63015;45.378;20.360;2022-09-06T13:04:43;101026.22;;;26.02;42.43
74542;BME280;63015;45.378;20.360;2022-09-06T13:07:13;101030.38;;;25.92;42.22
74542;BME280;63015;45.378;20.360;2022-09-06T13:09:41;101028.63;;;25.91;42.75
74542;BME280;63015;45.378;20.360;2022-09-06T13:12:09;101021.66;;;25.88;42.58
74542;BME280;63015;45.378;20.360;2022-09-06T13:14:39;101019.19;;;25.85;42.84
74542;BME280;63015;45.378;20.360;2022-09-06T13:17:05;101020.03;;;25.86;42.24
74542;BME280;63015;45.378;20.360;2022-09-06T13:19:35;101013.22;;;25.96;42.35
74542;BME280;63015;45.378;20.360;2022-09-06T13:22:02;101014.50;;;25.89;43.35
74542;BME280;63015;45.378;20.360;2022-09-06T13:29:53;101007.63;;;25.85;44.94
74542;BME280;63015;45.378;20.360;2022-09-06T13:32:19;101006.78;;;25.84;47.57
74542;BME280;63015;45.378;20.360;2022-09-06T13:34:48;101003.94;;;25.71;46.74
74542;BME280;63015;45.378;20.360;2022-09-06T13:37:15;100995.66;;;25.76;46.60
74542;BME280;63015;45.378;20.360;2022-09-06T13:39:41;100999.69;;;25.83;46.24
74542;BME280;63015;45.378;20.360;2022-09-06T13:42:22;100997.03;;;25.83;46.67
74542;BME280;63015;45.378;20.360;2022-09-06T13:44:49;100995.22;;;25.84;46.54
74542;BME280;63015;45.378;20.360;2022-09-06T13:47:18;100997.66;;;25.72;47.51
74542;BME280;63015;45.378;20.360;2022-09-06T13:49:44;100983.41;;;25.72;47.58
74542;BME280;63015;45.378;20.360;2022-09-06T13:52:09;100987.63;;;25.76;47.79
74542;BME280;63015;45.378;20.360;2022-09-06T13:54:35;100987.47;;;25.79;47.62
74542;BME280;63015;45.378;20.360;2022-09-06T13:57:01;100987.41;;;25.65;47.61
74542;BME280;63015;45.378;20.360;2022-09-06T13:59:27;100989.53;;;25.74;47.67
74542;BME280;63015;45.378;20.360;2022-09-06T14:02:04;100989.28;;;25.78;47.45
74542;BME280;63015;45.378;20.360;2022-09-06T14:04:30;100985.50;;;25.83;47.55
74542;BME280;63015;45.378;20.360;2022-09-06T14:06:56;100985.13;;;25.89;48.41
74542;BME280;63015;45.378;20.360;2022-09-06T14:09:22;100974.72;;;25.68;47.70
74542;BME280;63015;45.378;20.360;2022-09-06T14:11:48;100982.66;;;25.70;48.33
74542;BME280;63015;45.378;20.360;2022-09-06T14:14:14;100979.53;;;25.61;48.32
74542;BME280;63015;45.378;20.360;2022-09-06T14:16:42;100980.34;;;25.64;47.77
74542;BME280;63015;45.378;20.360;2022-09-06T14:19:08;100976.53;;;25.52;47.74
74542;BME280;63015;45.378;20.360;2022-09-06T14:21:34;100981.88;;;25.52;48.23
74542;BME280;63015;45.378;20.360;2022-09-06T14:24:00;100973.94;;;25.50;47.70
74542;BME280;63015;45.378;20.360;2022-09-06T14:26:26;100963.97;;;25.54;48.01
74542;BME280;63015;45.378;20.360;2022-09-06T14:28:53;100966.72;;;25.36;48.34
74542;BME280;63015;45.378;20.360;2022-09-06T14:31:20;100966.81;;;25.33;48.10
74542;BME280;63015;45.378;20.360;2022-09-06T14:33:46;100961.66;;;25.30;47.58